createdAt,value
2019-05-15T05:11:38.290Z,0.74
2019-05-15T05:21:38.586Z,0.87
2019-05-15T05:31:39.136Z,0.42
2019-05-15T05:41:39.153Z,0.83
2019-05-15T05:51:38.723Z,1.66
2019-05-15T06:01:43.250Z,1.82
2019-05-15T06:11:38.115Z,1.34
2019-05-15T06:21:53.667Z,0.95
2019-05-15T06:31:38.830Z,1.60
2019-05-15T06:41:38.994Z,1.81
2019-05-15T06:51:37.923Z,2.53
2019-05-15T07:01:38.549Z,4.04
2019-05-15T07:11:38.791Z,3.90
2019-05-15T07:21:38.839Z,7.19
2019-05-15T07:31:38.410Z,6.43
2019-05-15T07:41:39.168Z,4.79
2019-05-15T07:51:38.164Z,6.27
2019-05-15T08:01:38.616Z,4.55
2019-05-15T08:11:39.105Z,6.46
2019-05-15T08:21:38.603Z,4.02
2019-05-15T08:31:38.849Z,7.34
2019-05-15T08:41:39.078Z,4.16
2019-05-15T08:51:38.368Z,3.76
2019-05-15T09:01:38.314Z,4.31
2019-05-15T09:11:39.089Z,9.70
2019-05-15T09:21:38.803Z,8.59
2019-05-15T09:31:39.155Z,8.13
2019-05-15T09:41:38.310Z,7.53
2019-05-15T09:51:38.617Z,7.61
2019-05-15T10:01:39.454Z,8.09
2019-05-15T10:11:38.407Z,8.52
2019-05-15T10:21:39.970Z,9.66
2019-05-15T10:31:38.927Z,10.94
2019-05-15T10:41:38.844Z,10.86
2019-05-15T10:51:39.585Z,13.39
2019-05-15T11:01:38.822Z,11.02
2019-05-15T11:11:37.706Z,9.95
2019-05-15T11:21:37.685Z,10.38
2019-05-15T11:31:39.341Z,11.90
2019-05-15T11:41:38.688Z,9.73
2019-05-15T11:51:38.359Z,8.22
2019-05-15T12:01:38.278Z,9.78
2019-05-15T12:11:41.113Z,7.51
2019-05-15T12:21:39.605Z,9.09
2019-05-15T12:31:38.963Z,7.50
2019-05-15T13:01:38.876Z,11.17
2019-05-15T13:11:38.022Z,8.95
2019-05-15T13:21:38.062Z,9.06
2019-05-15T13:31:38.380Z,9.87
2019-05-15T13:41:38.575Z,10.17
2019-05-15T13:51:38.556Z,10.38
2019-05-15T14:01:39.403Z,10.96
2019-05-15T14:11:38.973Z,8.97
2019-05-15T14:21:38.041Z,10.73
2019-05-15T14:31:39.409Z,8.30
2019-05-15T14:41:38.194Z,7.66
2019-05-15T14:51:39.224Z,9.32
2019-05-15T15:01:38.420Z,9.92
2019-05-15T15:11:38.556Z,8.49
2019-05-15T15:21:38.425Z,9.11
2019-05-15T15:31:39.034Z,8.84
2019-05-15T15:41:38.973Z,6.93
2019-05-15T15:51:38.046Z,8.93
2019-05-15T16:01:38.975Z,8.71
2019-05-15T16:11:38.607Z,7.19
2019-05-15T16:21:39.368Z,5.31
2019-05-15T16:31:38.396Z,6.42
2019-05-15T16:41:38.280Z,7.67
2019-05-15T16:51:38.267Z,8.91
2019-05-15T17:01:41.260Z,7.22
2019-05-15T17:11:38.375Z,7.62
2019-05-15T17:21:40.652Z,8.17
2019-05-15T17:31:38.092Z,8.24
2019-05-15T17:41:39.086Z,8.35
2019-05-15T17:51:38.350Z,8.93
2019-05-15T18:01:38.260Z,10.24
2019-05-15T18:11:38.395Z,8.97
2019-05-15T18:21:38.567Z,10.21
2019-05-15T18:31:38.168Z,9.54
2019-05-15T18:41:38.301Z,8.61
2019-05-15T18:51:38.576Z,9.37
2019-05-15T19:01:39.357Z,8.77
